Time;durP1;ratioP1;P1;durP2;ratioP2;P2;SDS_P1;SDS_P2;PMS_P1;PMS_P2;Temp;Humidity;BMP_temperature;BMP_pressure;BME280_temperature;BME280_humidity;BME280_pressure;Samples;Min_cycle;Max_cycle;Signal;HPM_P1;HPM_P2
2023/05/24 00:02:13;;;;;;;;;;;;;;;22.50;44.12;102418.88;5032934;28;19913;-71
2023/05/24 00:04:39;;;;;;;;;;;;;;;22.50;44.20;102416.19;5051994;28;19928;-72
2023/05/24 00:07:05;;;;;;;;;;;;;;;22.47;44.25;102411.06;5054224;28;19913;-72
2023/05/24 00:09:30;;;;;;;;;;;;;;;22.48;44.02;102409.22;5052449;28;19958;-72
2023/05/24 00:11:56;;;;;;;;;;;;;;;22.45;44.17;102408.53;5053713;28;19929;-72
2023/05/24 00:14:21;;;;;;;;;;;;;;;22.44;44.24;102408.69;5053318;28;20398;-71
2023/05/24 00:16:46;;;;;;;;;;;;;;;22.43;44.06;102410.56;5057352;28;20398;-72
2023/05/24 00:19:17;;;;;;;;;;;;;;;22.42;43.97;102400.69;5047587;28;19925;-72
2023/05/24 00:21:45;;;;;;;;;;;;;;;22.41;44.06;102399.00;5057476;28;19917;-72
2023/05/24 00:24:10;;;;;;;;;;;;;;;22.40;43.96;102401.88;5035854;28;20384;-71
2023/05/24 00:26:36;;;;;;;;;;;;;;;22.39;44.05;102395.59;5045093;28;19921;-71
2023/05/24 00:29:01;;;;;;;;;;;;;;;22.38;43.83;102390.31;5051651;28;19917;-71
2023/05/24 00:31:26;;;;;;;;;;;;;;;22.36;44.04;102400.47;5054808;28;19913;-71
2023/05/24 00:33:51;;;;;;;;;;;;;;;22.34;43.76;102392.47;5039659;28;20289;-72
2023/05/24 00:36:16;;;;;;;;;;;;;;;22.33;43.83;102389.94;5050936;28;19913;-70
2023/05/24 00:38:41;;;;;;;;;;;;;;;22.32;43.93;102389.09;5051478;28;19920;-71
2023/05/24 00:41:07;;;;;;;;;;;;;;;22.31;44.17;102383.84;5046198;28;19917;-71
2023/05/24 00:43:32;;;;;;;;;;;;;;;22.29;43.94;102392.09;5050846;28;19924;-71
2023/05/24 00:46:17;;;;;;;;;;;;;;;22.28;44.08;102384.16;5045780;28;19955;-71
2023/05/24 00:48:42;;;;;;;;;;;;;;;22.27;44.18;102387.88;5052190;28;19970;-70
2023/05/24 00:51:08;;;;;;;;;;;;;;;22.25;44.04;102379.88;5060217;28;19968;-71
2023/05/24 00:53:34;;;;;;;;;;;;;;;22.24;44.24;102383.59;5045711;28;19928;-72
2023/05/24 00:55:59;;;;;;;;;;;;;;;22.23;43.75;102381.06;5051180;28;19963;-72
2023/05/24 00:58:29;;;;;;;;;;;;;;;22.21;43.85;102381.19;5036681;28;19917;-72
2023/05/24 01:00:56;;;;;;;;;;;;;;;22.20;44.18;102380.34;5051578;28;19917;-72
2023/05/24 01:03:21;;;;;;;;;;;;;;;22.19;44.08;102385.94;5033783;28;19917;-72
2023/05/24 01:05:47;;;;;;;;;;;;;;;22.17;43.91;102377.97;5050582;28;19995;-72
2023/05/24 01:08:21;;;;;;;;;;;;;;;22.17;43.93;102377.09;5053131;28;19936;-72
2023/05/24 01:10:51;;;;;;;;;;;;;;;22.16;43.73;102375.38;5034548;28;19924;-72
2023/05/24 01:13:16;;;;;;;;;;;;;;;22.15;43.90;102373.69;5039771;28;20428;-72
2023/05/24 01:15:47;;;;;;;;;;;;;;;22.13;43.97;102379.28;5049790;28;19957;-71
2023/05/24 01:18:14;;;;;;;;;;;;;;;22.13;44.08;102384.69;5060680;28;19917;-71
2023/05/24 01:20:39;;;;;;;;;;;;;;;22.12;43.96;102380.25;5052277;28;19913;-70
2023/05/24 01:23:17;;;;;;;;;;;;;;;22.11;43.67;102375.81;5049698;28;19958;-72
2023/05/24 01:26:00;;;;;;;;;;;;;;;22.09;43.64;102375.16;5054621;28;19913;-72
2023/05/24 01:28:26;;;;;;;;;;;;;;;22.08;43.83;102370.72;5054090;28;19973;-72
2023/05/24 01:30:51;;;;;;;;;;;;;;;22.06;43.81;102371.88;5046675;28;19917;-72
2023/05/24 01:33:16;;;;;;;;;;;;;;;22.06;43.82;102374.59;5052819;28;19920;-71
2023/05/24 01:35:41;;;;;;;;;;;;;;;22.05;43.79;102375.59;5032991;28;20294;-71
2023/05/24 01:38:07;;;;;;;;;;;;;;;22.03;43.77;102373.03;5049790;28;20674;-71
2023/05/24 01:40:32;;;;;;;;;;;;;;;22.02;43.83;102379.47;5055885;28;19917;-71
2023/05/24 01:42:57;;;;;;;;;;;;;;;22.01;43.65;102377.78;5043101;28;19920;-71
2023/05/24 01:45:33;;;;;;;;;;;;;;;22.00;43.71;102381.47;5057725;28;19913;-71
2023/05/24 01:47:58;;;;;;;;;;;;;;;22.00;43.71;102380.59;5044943;28;19916;-72
2023/05/24 01:50:23;;;;;;;;;;;;;;;21.98;43.76;102383.47;5039243;28;20016;-71
2023/05/24 01:52:49;;;;;;;;;;;;;;;21.95;43.79;102379.22;5056170;28;19913;-72
2023/05/24 01:55:14;;;;;;;;;;;;;;;21.94;43.67;102377.50;5029260;28;19939;-72
2023/05/24 01:57:40;;;;;;;;;;;;;;;21.94;43.76;102380.22;5032561;28;20019;-72
2023/05/24 02:00:05;;;;;;;;;;;;;;;21.93;43.57;102372.25;5030470;28;20151;-71
2023/05/24 02:02:30;;;;;;;;;;;;;;;21.92;43.82;102378.69;5021987;28;19984;-71
2023/05/24 02:04:56;;;;;;;;;;;;;;;21.91;43.83;102382.38;5031546;28;19925;-71
2023/05/24 02:07:21;;;;;;;;;;;;;;;21.89;43.57;102374.41;5052810;28;19913;-71
2023/05/24 02:09:46;;;;;;;;;;;;;;;21.88;43.77;102370.03;5050700;28;19913;-71
2023/05/24 02:12:11;;;;;;;;;;;;;;;21.88;43.58;102371.88;5055323;28;19913;-72
2023/05/24 02:14:36;;;;;;;;;;;;;;;21.87;43.56;102375.56;5044029;28;19913;-72
2023/05/24 02:17:02;;;;;;;;;;;;;;;21.84;43.86;102368.63;5049883;28;19983;-71
2023/05/24 02:19:27;;;;;;;;;;;;;;;21.84;43.66;102365.91;5022576;28;19924;-71
2023/05/24 02:21:53;;;;;;;;;;;;;;;21.84;43.65;102368.63;5029991;28;19917;-71
2023/05/24 02:24:18;;;;;;;;;;;;;;;21.83;43.63;102363.34;5037213;28;19924;-71
2023/05/24 02:26:43;;;;;;;;;;;;;;;21.81;43.63;102359.94;5050159;28;20000;-71
2023/05/24 02:29:09;;;;;;;;;;;;;;;21.80;43.74;102359.09;5045245;28;19916;-71
2023/05/24 02:31:34;;;;;;;;;;;;;;;21.79;43.61;102360.09;5033261;28;19963;-71
2023/05/24 02:33:59;;;;;;;;;;;;;;;21.79;43.73;102359.22;5051483;28;19913;-71
2023/05/24 02:36:24;;;;;;;;;;;;;;;21.78;43.63;102357.53;5050594;28;19919;-72
2023/05/24 02:38:50;;;;;;;;;;;;;;;21.76;43.56;102352.28;5053525;28;19912;-72
2023/05/24 02:41:17;;;;;;;;;;;;;;;21.76;43.60;102364.97;5056141;28;19921;-72
2023/05/24 02:43:42;;;;;;;;;;;;;;;21.75;43.94;102361.41;5042124;28;19960;-71
2023/05/24 02:46:08;;;;;;;;;;;;;;;21.74;43.75;102367.81;5043250;28;19927;-71
2023/05/24 02:48:33;;;;;;;;;;;;;;;21.73;43.85;102360.69;5027876;28;20021;-72
2023/05/24 02:51:01;;;;;;;;;;;;;;;21.73;43.71;102351.72;5036027;28;19921;-72
2023/05/24 02:53:27;;;;;;;;;;;;;;;21.71;43.80;102360.03;5035200;28;19991;-72
2023/05/24 02:55:52;;;;;;;;;;;;;;;21.71;43.96;102357.31;5049871;28;19917;-72
2023/05/24 02:58:17;;;;;;;;;;;;;;;21.69;43.65;102354.72;5049647;28;19951;-72
2023/05/24 03:00:42;;;;;;;;;;;;;;;21.68;43.57;102358.44;5034617;28;19920;-72
2023/05/24 03:03:07;;;;;;;;;;;;;;;21.68;43.58;102354.91;5051880;28;19939;-72
2023/05/24 03:05:33;;;;;;;;;;;;;;;21.66;43.74;102360.47;5049713;28;19913;-71
2023/05/24 03:07:58;;;;;;;;;;;;;;;21.65;43.58;102360.59;5058965;28;19936;-72
2023/05/24 03:10:23;;;;;;;;;;;;;;;21.64;43.73;102364.31;5031522;28;19921;-71
2023/05/24 03:12:48;;;;;;;;;;;;;;;21.63;43.72;102360.78;5047567;28;19920;-72
2023/05/24 03:15:13;;;;;;;;;;;;;;;21.63;43.82;102360.78;5038226;28;19924;-72
2023/05/24 03:17:39;;;;;;;;;;;;;;;21.63;43.56;102351.81;5043888;28;19937;-71
2023/05/24 03:20:04;;;;;;;;;;;;;;;21.62;43.75;102358.19;5041169;28;19970;-72
2023/05/24 03:22:29;;;;;;;;;;;;;;;21.60;43.83;102352.94;5035952;28;19920;-71
2023/05/24 03:24:55;;;;;;;;;;;;;;;21.59;43.60;102353.97;5051735;28;19917;-72
2023/05/24 03:27:20;;;;;;;;;;;;;;;21.59;43.70;102358.53;5052579;28;19956;-72
2023/05/24 03:29:45;;;;;;;;;;;;;;;21.58;43.75;102357.69;5025651;28;19914;-72
2023/05/24 03:32:10;;;;;;;;;;;;;;;21.57;43.87;102355.09;5053347;28;19996;-72
2023/05/24 03:34:35;;;;;;;;;;;;;;;21.57;43.76;102357.81;5056859;28;19980;-72
2023/05/24 03:37:01;;;;;;;;;;;;;;;21.56;43.87;102358.81;5055115;28;19948;-72
2023/05/24 03:39:26;;;;;;;;;;;;;;;21.55;43.61;102357.13;5055961;28;20021;-72
2023/05/24 03:41:51;;;;;;;;;;;;;;;21.55;43.89;102359.81;5057882;28;19916;-72
2023/05/24 03:44:16;;;;;;;;;;;;;;;21.53;43.77;102357.25;5048057;28;20028;-72
2023/05/24 03:46:41;;;;;;;;;;;;;;;21.54;43.80;102360.84;5036686;28;20348;-72
2023/05/24 03:49:06;;;;;;;;;;;;;;;21.52;43.76;102363.66;5052629;28;19921;-71
2023/05/24 03:51:32;;;;;;;;;;;;;;;21.51;43.63;102356.56;5055674;28;20536;-72
2023/05/24 03:53:57;;;;;;;;;;;;;;;21.51;43.64;102353.00;5054867;28;20341;-71
2023/05/24 03:56:22;;;;;;;;;;;;;;;21.50;43.59;102356.72;5052716;28;19940;-71
2023/05/24 03:58:48;;;;;;;;;;;;;;;21.50;43.85;102357.56;5051156;28;19913;-72
2023/05/24 04:01:13;;;;;;;;;;;;;;;21.49;43.57;102355.84;5043468;28;19960;-72
2023/05/24 04:03:40;;;;;;;;;;;;;;;21.48;43.56;102359.56;5055772;28;19921;-71
2023/05/24 04:06:05;;;;;;;;;;;;;;;21.48;43.64;102362.25;5056429;28;20358;-71
2023/05/24 04:08:30;;;;;;;;;;;;;;;21.48;43.68;102366.84;5060911;28;19917;-72
2023/05/24 04:10:55;;;;;;;;;;;;;;;21.46;43.59;102365.13;5051565;28;20075;-71
2023/05/24 04:13:21;;;;;;;;;;;;;;;21.45;43.65;102366.16;5054394;28;19920;-72
2023/05/24 04:15:46;;;;;;;;;;;;;;;21.45;43.69;102368.84;5041812;28;19929;-72
2023/05/24 04:18:13;;;;;;;;;;;;;;;21.45;43.73;102370.69;5046521;28;20417;-72
2023/05/24 04:20:38;;;;;;;;;;;;;;;21.44;43.55;102364.41;5052390;28;19913;-72
2023/05/24 04:23:03;;;;;;;;;;;;;;;21.44;43.98;102363.56;5039177;28;20396;-72
2023/05/24 04:25:28;;;;;;;;;;;;;;;21.43;43.87;102364.56;5054394;28;19996;-71
2023/05/24 04:27:54;;;;;;;;;;;;;;;21.43;43.89;102364.56;5052523;28;19913;-72
2023/05/24 04:30:20;;;;;;;;;;;;;;;21.41;43.65;102367.44;5044343;28;19913;-71
2023/05/24 04:32:46;;;;;;;;;;;;;;;21.41;43.59;102370.16;5049582;28;19913;-72
2023/05/24 04:35:11;;;;;;;;;;;;;;;21.40;43.90;102373.84;5062183;28;19912;-71
2023/05/24 04:37:36;;;;;;;;;;;;;;;21.40;43.81;102376.53;5045910;28;19919;-72
2023/05/24 04:40:04;;;;;;;;;;;;;;;21.40;43.64;102370.28;5051215;28;19917;-72
2023/05/24 04:42:30;;;;;;;;;;;;;;;21.39;43.75;102364.03;5056013;28;19920;-72
2023/05/24 04:44:55;;;;;;;;;;;;;;;21.38;43.73;102362.31;5040895;28;19980;-71
2023/05/24 04:47:21;;;;;;;;;;;;;;;21.38;43.69;102362.31;5037773;28;19913;-72
2023/05/24 04:49:46;;;;;;;;;;;;;;;21.37;43.98;102359.78;5054333;28;19916;-72
2023/05/24 04:52:11;;;;;;;;;;;;;;;21.37;43.71;102367.91;5051813;28;19913;-72
2023/05/24 04:54:36;;;;;;;;;;;;;;;21.36;43.66;102361.59;5050914;28;19913;-72
2023/05/24 04:57:01;;;;;;;;;;;;;;;21.36;43.70;102363.47;5055659;28;20428;-72
2023/05/24 04:59:26;;;;;;;;;;;;;;;21.35;43.60;102359.91;5050659;28;19914;-72
2023/05/24 05:01:52;;;;;;;;;;;;;;;21.34;43.56;102360.91;5054986;28;19917;-72
2023/05/24 05:04:17;;;;;;;;;;;;;;;21.35;43.91;102359.06;5055615;28;19921;-72
2023/05/24 05:06:43;;;;;;;;;;;;;;;21.34;43.58;102369.03;5050706;28;19920;-71
2023/05/24 05:09:09;;;;;;;;;;;;;;;21.34;43.56;102360.06;5055601;28;19928;-71
2023/05/24 05:11:35;;;;;;;;;;;;;;;21.33;43.84;102366.50;5051719;28;19913;-73
2023/05/24 05:14:00;;;;;;;;;;;;;;;21.32;43.73;102362.06;5033755;28;19916;-71
2023/05/24 05:16:25;;;;;;;;;;;;;;;21.31;43.70;102363.03;5021502;28;19928;-72
2023/05/24 05:18:50;;;;;;;;;;;;;;;21.30;43.68;102359.47;5052866;28;19953;-72
2023/05/24 05:21:16;;;;;;;;;;;;;;;21.31;43.57;102366.59;5050991;28;19917;-72
2023/05/24 05:23:41;;;;;;;;;;;;;;;21.30;43.67;102358.63;5035002;28;19921;-71
2023/05/24 05:26:06;;;;;;;;;;;;;;;21.30;43.94;102359.47;5051699;28;20012;-71
2023/05/24 05:28:32;;;;;;;;;;;;;;;21.29;43.52;102352.38;5053179;28;19920;-71
2023/05/24 05:30:57;;;;;;;;;;;;;;;21.28;43.63;102364.19;5041379;28;19923;-71
2023/05/24 05:33:22;;;;;;;;;;;;;;;21.29;43.83;102362.34;5042308;28;19917;-72
2023/05/24 05:35:48;;;;;;;;;;;;;;;21.27;43.82;102362.47;5054585;28;19921;-71
2023/05/24 05:38:13;;;;;;;;;;;;;;;21.27;43.97;102362.47;5041304;28;19917;-72
2023/05/24 05:40:38;;;;;;;;;;;;;;;21.27;43.57;102362.47;5044696;28;19913;-72
2023/05/24 05:43:03;;;;;;;;;;;;;;;21.26;43.54;102371.59;5035174;28;19913;-72
2023/05/24 05:45:29;;;;;;;;;;;;;;;21.26;43.90;102368.91;5033239;28;19949;-72
2023/05/24 05:47:54;;;;;;;;;;;;;;;21.25;43.67;102367.19;5050826;28;19917;-72
2023/05/24 05:50:19;;;;;;;;;;;;;;;21.25;43.58;102364.50;5036494;28;19917;-72
2023/05/24 05:52:44;;;;;;;;;;;;;;;21.25;43.73;102378.00;5040363;28;19952;-72
2023/05/24 05:55:11;;;;;;;;;;;;;;;21.24;43.53;102381.72;5042974;28;20639;-71
2023/05/24 05:57:36;;;;;;;;;;;;;;;21.25;43.66;102385.28;5056987;28;20011;-71
2023/05/24 06:00:01;;;;;;;;;;;;;;;21.24;43.89;102387.13;5050649;28;19963;-71
2023/05/24 06:02:27;;;;;;;;;;;;;;;21.24;43.95;102384.44;5055181;28;19919;-71
2023/05/24 06:04:52;;;;;;;;;;;;;;;21.24;43.82;102389.84;5053225;28;19927;-71
2023/05/24 06:07:17;;;;;;;;;;;;;;;21.23;43.97;102391.66;5044072;28;20289;-71
2023/05/24 06:09:42;;;;;;;;;;;;;;;21.23;43.89;102393.53;5053731;28;19917;-71
2023/05/24 06:12:07;;;;;;;;;;;;;;;21.23;43.54;102393.53;5050199;28;19920;-72
2023/05/24 06:14:33;;;;;;;;;;;;;;;21.23;43.45;102393.53;5030197;28;20344;-71
2023/05/24 06:16:58;;;;;;;;;;;;;;;21.22;43.87;102403.50;5050280;28;19975;-71
2023/05/24 06:19:23;;;;;;;;;;;;;;;21.23;43.77;102407.06;5035695;28;20028;-71
2023/05/24 06:21:49;;;;;;;;;;;;;;;21.24;43.87;102408.78;5032397;28;19992;-72
2023/05/24 06:24:19;;;;;;;;;;;;;;;21.22;43.88;102402.66;5053322;28;19927;-72
2023/05/24 06:26:44;;;;;;;;;;;;;;;21.21;43.57;102400.94;5051299;28;19917;-72
2023/05/24 06:29:09;;;;;;;;;;;;;;;21.21;43.53;102399.09;5055663;28;19913;-73
2023/05/24 06:31:34;;;;;;;;;;;;;;;21.21;43.75;102400.94;5054506;28;19914;-71
2023/05/24 06:33:59;;;;;;;;;;;;;;;21.21;43.95;102400.94;5040993;28;19921;-71
2023/05/24 06:36:25;;;;;;;;;;;;;;;21.21;43.91;102401.81;5051713;28;19983;-71
2023/05/24 06:38:50;;;;;;;;;;;;;;;21.20;43.50;102400.09;5048756;28;19936;-72
2023/05/24 06:41:15;;;;;;;;;;;;;;;21.20;43.56;102405.50;5049467;28;19913;-71
2023/05/24 06:43:40;;;;;;;;;;;;;;;21.20;43.69;102396.56;5049355;28;19920;-71
2023/05/24 06:46:05;;;;;;;;;;;;;;;21.20;43.54;102400.09;5044948;28;19921;-71
2023/05/24 06:48:31;;;;;;;;;;;;;;;21.21;43.56;102406.38;5049415;28;19920;-71
2023/05/24 06:50:57;;;;;;;;;;;;;;;21.21;43.66;102407.22;5039798;28;19932;-71
2023/05/24 06:53:22;;;;;;;;;;;;;;;21.21;43.81;102404.50;5052204;28;19956;-70
2023/05/24 06:55:47;;;;;;;;;;;;;;;21.22;43.65;102397.25;5050126;28;19935;-71
2023/05/24 06:58:13;;;;;;;;;;;;;;;21.22;43.97;102405.34;5057254;28;19913;-71
2023/05/24 07:00:39;;;;;;;;;;;;;;;21.22;43.73;102403.50;5049180;28;20035;-71
2023/05/24 07:03:04;;;;;;;;;;;;;;;21.23;43.84;102405.19;5045243;28;20297;-71
2023/05/24 07:05:30;;;;;;;;;;;;;;;21.23;43.71;102402.50;5039707;28;20015;-71
2023/05/24 07:07:55;;;;;;;;;;;;;;;21.25;43.65;102409.63;5049564;28;19917;-72
2023/05/24 07:10:20;;;;;;;;;;;;;;;21.24;43.73;102403.38;5032985;28;19913;-72
2023/05/24 07:12:45;;;;;;;;;;;;;;;21.25;43.47;102399.66;5037210;28;20349;-71
2023/05/24 07:15:11;;;;;;;;;;;;;;;21.26;43.51;102398.66;5047560;28;19917;-71
2023/05/24 07:17:36;;;;;;;;;;;;;;;21.26;43.54;102401.34;5048992;28;19944;-71
2023/05/24 07:20:01;;;;;;;;;;;;;;;21.28;43.76;102409.31;5052519;28;20015;-71
2023/05/24 07:22:27;;;;;;;;;;;;;;;21.28;43.44;102417.44;5049235;28;20007;-71
2023/05/24 07:24:53;;;;;;;;;;;;;;;21.28;43.58;102414.72;5056580;28;19917;-71
2023/05/24 07:27:18;;;;;;;;;;;;;;;21.29;43.50;102422.72;5033216;28;20086;-72
2023/05/24 07:29:43;;;;;;;;;;;;;;;21.29;43.80;102414.59;5042787;28;19913;-72
2023/05/24 07:32:08;;;;;;;;;;;;;;;21.30;43.38;102421.69;5054112;28;20389;-72
2023/05/24 07:34:34;;;;;;;;;;;;;;;21.31;43.74;102420.69;5048882;28;19920;-71
2023/05/24 07:37:00;;;;;;;;;;;;;;;21.31;43.64;102414.44;5036624;28;19920;-71
2023/05/24 07:39:26;;;;;;;;;;;;;;;21.32;43.67;102410.75;5048805;28;19919;-72
2023/05/24 07:41:51;;;;;;;;;;;;;;;21.32;43.41;102408.91;5051416;28;19965;-72
2023/05/24 07:44:17;;;;;;;;;;;;;;;21.34;43.65;102414.19;5044333;28;19928;-72
2023/05/24 07:46:42;;;;;;;;;;;;;;;21.34;43.65;102408.78;5053211;28;19917;-70
2023/05/24 07:49:08;;;;;;;;;;;;;;;21.35;43.72;102413.16;5038295;28;20373;-71
2023/05/24 07:51:33;;;;;;;;;;;;;;;21.36;43.41;102414.88;5056197;28;19913;-71
2023/05/24 07:53:58;;;;;;;;;;;;;;;21.36;43.60;102414.88;5054981;28;20404;-71
2023/05/24 07:56:25;;;;;;;;;;;;;;;21.35;43.53;102400.50;5049654;28;19913;-71
2023/05/24 07:58:50;;;;;;;;;;;;;;;21.35;43.60;102403.19;5058986;28;19979;-70
2023/05/24 08:01:17;;;;;;;;;;;;;;;21.37;43.46;102403.06;5052291;28;19920;-72
2023/05/24 08:03:42;;;;;;;;;;;;;;;21.36;43.41;102404.03;5052859;28;19917;-72
2023/05/24 08:06:08;;;;;;;;;;;;;;;21.36;43.35;102406.75;5034197;28;19920;-71
2023/05/24 08:08:34;;;;;;;;;;;;;;;21.36;43.72;102404.03;5035765;28;19913;-71
2023/05/24 08:10:59;;;;;;;;;;;;;;;21.35;43.30;102403.19;5036107;28;19986;-71
2023/05/24 08:13:25;;;;;;;;;;;;;;;21.36;43.42;102406.75;5054875;28;19924;-72
2023/05/24 08:15:50;;;;;;;;;;;;;;;21.35;43.43;102408.59;5051750;28;19974;-71
2023/05/24 08:18:15;;;;;;;;;;;;;;;21.35;43.30;102400.50;5048304;28;19924;-71
2023/05/24 08:20:40;;;;;;;;;;;;;;;21.35;43.39;102405.06;5029441;28;19917;-71
2023/05/24 08:23:05;;;;;;;;;;;;;;;21.35;43.80;102411.31;5045998;28;19924;-71
2023/05/24 08:25:31;;;;;;;;;;;;;;;21.35;43.42;102413.16;5061480;28;19952;-71
2023/05/24 08:27:56;;;;;;;;;;;;;;;21.34;43.47;102409.63;5052221;28;19951;-71
2023/05/24 08:30:22;;;;;;;;;;;;;;;21.34;43.45;102415.03;5022949;28;19917;-71
2023/05/24 08:32:47;;;;;;;;;;;;;;;21.35;43.80;102413.16;5041253;28;19957;-71
2023/05/24 08:35:12;;;;;;;;;;;;;;;21.34;43.53;102412.31;5047461;28;19971;-71
2023/05/24 08:37:37;;;;;;;;;;;;;;;21.34;43.80;102417.72;5039018;28;19913;-71
2023/05/24 08:40:03;;;;;;;;;;;;;;;21.33;43.93;102418.75;5034300;28;19913;-71
2023/05/24 08:42:29;;;;;;;;;;;;;;;21.32;43.74;102417.00;5033549;28;19928;-72
2023/05/24 08:44:58;;;;;;;;;;;;;;;21.33;43.87;102416.03;5033425;28;19917;-72
2023/05/24 08:47:23;;;;;;;;;;;;;;;21.33;43.92;102405.22;5039665;28;19917;-72
2023/05/24 08:49:49;;;;;;;;;;;;;;;21.34;43.80;102414.19;5050894;28;19913;-72
2023/05/24 08:52:14;;;;;;;;;;;;;;;21.34;43.71;102419.59;5042382;28;19913;-71
2023/05/24 08:54:40;;;;;;;;;;;;;;;21.33;43.57;102416.03;5036671;28;19913;-71
2023/05/24 08:57:06;;;;;;;;;;;;;;;21.33;43.68;102421.44;5048050;28;19917;-72
2023/05/24 08:59:31;;;;;;;;;;;;;;;21.32;43.78;102414.31;5037443;28;19909;-72
2023/05/24 09:01:56;;;;;;;;;;;;;;;21.33;43.81;102416.03;5033530;28;19943;-72
2023/05/24 09:04:21;;;;;;;;;;;;;;;21.34;43.74;102416.88;5050261;28;19917;-71
2023/05/24 09:06:47;;;;;;;;;;;;;;;21.34;43.87;102409.63;5049726;28;19996;-70
2023/05/24 09:09:12;;;;;;;;;;;;;;;21.34;43.58;102415.03;5022936;28;19920;-72
2023/05/24 09:11:38;;;;;;;;;;;;;;;21.34;43.53;102411.47;5026339;28;20362;-71
2023/05/24 09:14:03;;;;;;;;;;;;;;;21.33;43.69;102415.19;5057590;28;19917;-71
2023/05/24 09:16:28;;;;;;;;;;;;;;;21.34;43.63;102408.78;5051427;28;19921;-71
2023/05/24 09:18:54;;;;;;;;;;;;;;;21.34;43.73;102409.63;5042402;28;19917;-72
2023/05/24 09:21:19;;;;;;;;;;;;;;;21.33;43.61;102410.63;5056719;28;19917;-72
2023/05/24 09:23:44;;;;;;;;;;;;;;;21.34;43.80;102409.63;5033171;28;19967;-72
2023/05/24 09:26:10;;;;;;;;;;;;;;;21.35;43.52;102415.88;5036293;28;19944;-72
2023/05/24 09:28:35;;;;;;;;;;;;;;;21.35;43.62;102411.31;5050018;28;20349;-71
2023/05/24 09:31:02;;;;;;;;;;;;;;;21.35;43.63;102416.72;5051567;28;20259;-72
2023/05/24 09:33:27;;;;;;;;;;;;;;;21.36;43.80;102417.56;5051697;28;19928;-71
2023/05/24 09:35:56;;;;;;;;;;;;;;;21.35;43.65;102416.72;5045856;28;19913;-71
2023/05/24 09:38:21;;;;;;;;;;;;;;;21.37;43.61;102416.59;5050621;28;19943;-71
2023/05/24 09:40:46;;;;;;;;;;;;;;;21.37;43.89;102414.75;5020374;28;19951;-71
2023/05/24 09:43:12;;;;;;;;;;;;;;;21.38;43.72;102415.59;5052900;28;19963;-71
2023/05/24 09:45:41;;;;;;;;;;;;;;;21.37;43.65;102425.56;5053886;28;19956;-71
2023/05/24 09:48:09;;;;;;;;;;;;;;;21.38;43.70;102421.00;5057600;28;19921;-71
2023/05/24 09:50:34;;;;;;;;;;;;;;;21.38;43.67;102412.88;5026784;28;19920;-71
2023/05/24 09:52:59;;;;;;;;;;;;;;;21.39;43.54;102417.28;5039073;28;19913;-72
2023/05/24 09:55:25;;;;;;;;;;;;;;;21.38;43.89;102411.03;5044581;28;19936;-71
2023/05/24 09:57:51;;;;;;;;;;;;;;;21.40;44.02;102410.88;5042928;28;19947;-72
2023/05/24 10:00:21;;;;;;;;;;;;;;;21.39;43.77;102399.19;5056897;28;19929;-71
2023/05/24 10:02:46;;;;;;;;;;;;;;;21.40;43.78;102402.75;5051573;28;20061;-71
2023/05/24 10:05:12;;;;;;;;;;;;;;;21.41;43.76;102397.22;5032656;28;20441;-71
2023/05/24 10:07:37;;;;;;;;;;;;;;;21.43;43.68;102394.34;5031552;28;19923;-71
2023/05/24 10:10:03;;;;;;;;;;;;;;;21.43;44.02;102400.59;5024252;28;19917;-71
2023/05/24 10:12:28;;;;;;;;;;;;;;;21.44;43.96;102387.91;5052192;28;19955;-71
2023/05/24 10:14:56;;;;;;;;;;;;;;;21.44;43.80;102394.19;5055692;28;19912;-71
2023/05/24 10:17:21;;;;;;;;;;;;;;;21.45;43.92;102400.44;5040627;28;20330;-71
2023/05/24 10:19:46;;;;;;;;;;;;;;;21.46;43.84;102402.16;5045675;28;19975;-71
2023/05/24 10:22:12;;;;;;;;;;;;;;;21.45;43.94;102401.31;5034856;28;19913;-72
2023/05/24 10:24:44;;;;;;;;;;;;;;;21.47;43.86;102401.16;5044446;28;19928;-72
2023/05/24 10:27:12;;;;;;;;;;;;;;;21.47;44.05;102401.16;5052932;28;20350;-71
2023/05/24 10:29:58;;;;;;;;;;;;;;;21.48;44.28;102402.00;5023354;28;19965;-71
2023/05/24 10:32:24;;;;;;;;;;;;;;;21.49;44.28;102398.28;5053115;28;19913;-71
2023/05/24 10:34:49;;;;;;;;;;;;;;;21.49;43.93;102393.72;5030903;28;20000;-71
2023/05/24 10:37:16;;;;;;;;;;;;;;;21.48;44.11;102392.03;5035469;28;19921;-71
2023/05/24 10:39:41;;;;;;;;;;;;;;;21.49;44.17;102390.19;5046170;28;19948;-71
2023/05/24 10:42:06;;;;;;;;;;;;;;;21.50;43.98;102383.78;5055095;28;19920;-71
2023/05/24 10:44:31;;;;;;;;;;;;;;;21.50;43.91;102394.59;5042086;28;19973;-71
2023/05/24 10:47:08;;;;;;;;;;;;;;;21.51;43.92;102390.91;5042666;28;19917;-71
2023/05/24 10:49:33;;;;;;;;;;;;;;;21.51;44.04;102391.75;5052059;28;19917;-72
2023/05/24 10:52:02;;;;;;;;;;;;;;;21.52;44.01;102403.41;5049041;28;19913;-71
2023/05/24 10:54:28;;;;;;;;;;;;;;;21.52;44.04;102392.59;5034996;28;19928;-71
2023/05/24 10:56:53;;;;;;;;;;;;;;;21.52;44.39;102393.44;5022789;28;19913;-72
2023/05/24 10:59:36;;;;;;;;;;;;;;;21.53;44.37;102389.72;5049067;28;19924;-71
2023/05/24 11:02:02;;;;;;;;;;;;;;;21.56;44.04;102369.63;5036095;28;19917;-71
2023/05/24 11:04:36;;;;;;;;;;;;;;;21.56;44.30;102375.91;5052162;28;20480;-71
2023/05/24 11:07:02;;;;;;;;;;;;;;;21.58;44.22;102375.75;5033961;28;19917;-71
2023/05/24 11:09:28;;;;;;;;;;;;;;;21.59;44.08;102374.75;5055134;28;19917;-72
2023/05/24 11:11:54;;;;;;;;;;;;;;;21.59;44.08;102364.78;5048880;28;19917;-71
2023/05/24 11:14:26;;;;;;;;;;;;;;;21.60;44.17;102371.03;5039337;28;19913;-71
2023/05/24 11:16:51;;;;;;;;;;;;;;;21.60;44.29;102380.00;5034868;28;19921;-71
2023/05/24 11:19:16;;;;;;;;;;;;;;;21.62;44.07;102374.44;5048576;28;20417;-71
2023/05/24 11:21:45;;;;;;;;;;;;;;;21.62;44.23;102375.31;5053447;28;19924;-71
2023/05/24 11:24:10;;;;;;;;;;;;;;;21.64;44.10;102378.72;5039289;28;19921;-71
2023/05/24 11:26:35;;;;;;;;;;;;;;;21.65;44.18;102384.97;5037048;28;19913;-71
2023/05/24 11:29:01;;;;;;;;;;;;;;;21.67;44.02;102388.41;5022170;28;19913;-72
2023/05/24 11:31:26;;;;;;;;;;;;;;;21.68;44.43;102373.84;5057401;28;20332;-72
2023/05/24 11:33:51;;;;;;;;;;;;;;;21.68;44.45;102379.25;5053018;28;20302;-72
2023/05/24 11:36:16;;;;;;;;;;;;;;;21.70;44.26;102377.25;5037468;28;19992;-72
2023/05/24 11:38:42;;;;;;;;;;;;;;;21.71;44.23;102373.56;5044408;28;19967;-71
2023/05/24 11:41:07;;;;;;;;;;;;;;;21.71;44.39;102387.94;5055655;28;19969;-71
2023/05/24 11:43:32;;;;;;;;;;;;;;;21.72;44.16;102386.06;5058210;28;19917;-71
2023/05/24 11:45:57;;;;;;;;;;;;;;;21.73;44.25;102392.34;5053361;28;19970;-72
2023/05/24 11:48:23;;;;;;;;;;;;;;;21.73;44.49;102392.34;5055974;28;20362;-71
2023/05/24 11:50:48;;;;;;;;;;;;;;;21.74;44.35;102385.91;5036825;28;19923;-72
2023/05/24 11:53:15;;;;;;;;;;;;;;;21.75;44.50;102380.38;5047792;28;19956;-72
2023/05/24 11:55:41;;;;;;;;;;;;;;;21.78;44.33;102392.72;5054073;28;20039;-72
2023/05/24 11:58:10;;;;;;;;;;;;;;;21.78;44.27;102392.72;5053054;28;20321;-72
2023/05/24 12:00:35;;;;;;;;;;;;;;;21.78;44.56;102393.56;5040514;28;20003;-72
2023/05/24 12:03:05;;;;;;;;;;;;;;;21.80;44.68;102388.03;5051691;28;19924;-72
2023/05/24 12:05:31;;;;;;;;;;;;;;;21.79;44.50;102380.88;5060050;28;19928;-72
2023/05/24 12:08:15;;;;;;;;;;;;;;;21.80;44.48;102374.50;5040960;28;19917;-71
2023/05/24 12:10:41;;;;;;;;;;;;;;;21.81;44.37;102377.03;5058389;28;20035;-72
2023/05/24 12:13:16;;;;;;;;;;;;;;;21.82;44.49;102376.03;5050337;28;19917;-71
2023/05/24 12:15:41;;;;;;;;;;;;;;;21.83;44.56;102371.47;5040553;28;19924;-72
2023/05/24 12:18:16;;;;;;;;;;;;;;;21.84;44.45;102379.44;5033447;28;19953;-72
2023/05/24 12:20:41;;;;;;;;;;;;;;;21.84;44.62;102373.19;5048186;28;20389;-71
2023/05/24 12:23:06;;;;;;;;;;;;;;;21.84;44.55;102376.75;5034764;28;19953;-72
2023/05/24 12:25:31;;;;;;;;;;;;;;;21.84;44.91;102376.75;5034778;28;19967;-71
2023/05/24 12:27:57;;;;;;;;;;;;;;;21.83;44.81;102380.44;5051432;28;19944;-71
2023/05/24 12:30:22;;;;;;;;;;;;;;;21.83;44.56;102374.16;5051979;28;19955;-71